createdAt,value
2023-01-29T00:00:55.435Z,99401.40
2023-01-29T00:03:49.563Z,99401.20
2023-01-29T00:06:37.429Z,99405.48
2023-01-29T00:09:20.420Z,99406.44
2023-01-29T00:12:01.567Z,99404.17
2023-01-29T00:14:42.429Z,99407.27
2023-01-29T00:17:23.637Z,99405.66
2023-01-29T00:20:04.416Z,99404.59
2023-01-29T00:22:52.557Z,99400.59
2023-01-29T00:25:27.824Z,99405.86
2023-01-29T00:28:15.752Z,99401.98
2023-01-29T00:30:50.970Z,99399.84
2023-01-29T00:33:39.625Z,99402.52
2023-01-29T00:36:16.395Z,99407.64
2023-01-29T00:39:17.546Z,99407.45
2023-01-29T00:42:16.437Z,99413.71
2023-01-29T00:45:05.605Z,99419.09
2023-01-29T00:48:00.617Z,99418.91
2023-01-29T00:50:48.542Z,99420.48
2023-01-29T00:53:23.686Z,99416.34
2023-01-29T00:56:12.537Z,99422.74
2023-01-29T00:58:54.533Z,99420.98
2023-01-29T01:02:07.455Z,99423.20
2023-01-29T01:04:55.599Z,99424.93
2023-01-29T01:07:37.600Z,99425.16
2023-01-29T01:10:29.533Z,99423.46
2023-01-29T01:13:19.429Z,99424.19
2023-01-29T01:15:55.131Z,99425.78
2023-01-29T01:18:45.555Z,99427.80
2023-01-29T01:21:21.003Z,99428.83
2023-01-29T01:24:08.539Z,99427.70
2023-01-29T01:26:43.971Z,99431.27
2023-01-29T01:29:31.591Z,99426.55
2023-01-29T01:32:20.555Z,99424.02
2023-01-29T01:35:08.595Z,99425.52
2023-01-29T01:37:43.742Z,99430.61
2023-01-29T01:40:33.624Z,99430.91
2023-01-29T01:43:15.528Z,99430.75
2023-01-29T01:46:10.422Z,99428.23
2023-01-29T01:49:23.534Z,99426.61
2023-01-29T01:52:01.645Z,99429.56
2023-01-29T01:54:49.577Z,99423.57
2023-01-29T01:57:28.535Z,99423.67
2023-01-29T02:00:19.409Z,99421.60
2023-01-29T02:03:19.531Z,99415.20
2023-01-29T02:06:26.514Z,99409.02
2023-01-29T02:09:38.522Z,99403.98
2023-01-29T02:12:27.577Z,99399.28
2023-01-29T02:15:10.597Z,99393.09
2023-01-29T02:18:05.620Z,99391.45
2023-01-29T02:21:06.411Z,99391.34
2023-01-29T02:23:46.561Z,99389.30
2023-01-29T02:26:34.396Z,99387.84
2023-01-29T02:29:29.404Z,99386.05
2023-01-29T02:32:40.595Z,99380.73
2023-01-29T02:35:41.369Z,99383.48
2023-01-29T02:38:25.607Z,99385.37
2023-01-29T02:41:46.506Z,99386.58
2023-01-29T02:44:36.402Z,99384.84
2023-01-29T02:47:39.481Z,99386.46
2023-01-29T02:50:51.583Z,99387.84
2023-01-29T02:53:34.707Z,99394.58
2023-01-29T02:56:28.583Z,99388.01
2023-01-29T02:59:19.365Z,99385.91
2023-01-29T03:02:15.837Z,99393.62
2023-01-29T03:05:02.535Z,99392.38
2023-01-29T03:07:59.478Z,99393.20
2023-01-29T03:10:47.619Z,99400.09
2023-01-29T03:13:52.553Z,99402.34
2023-01-29T03:16:39.707Z,99399.88
2023-01-29T03:19:33.547Z,99405.30
2023-01-29T03:22:09.707Z,99407.88
2023-01-29T03:25:23.556Z,99409.19
2023-01-29T03:28:23.772Z,99408.39
2023-01-29T03:31:32.571Z,99416.65
2023-01-29T03:34:16.792Z,99415.44
2023-01-29T03:37:14.382Z,99417.23
2023-01-29T03:39:49.655Z,99419.80
2023-01-29T03:43:00.536Z,99413.09
2023-01-29T03:46:17.545Z,99402.24
2023-01-29T03:49:26.579Z,99402.75
2023-01-29T03:52:53.529Z,99407.59
2023-01-29T03:56:02.557Z,99398.84
2023-01-29T03:59:08.358Z,99399.08
2023-01-29T04:01:53.689Z,99407.30
2023-01-29T04:04:43.348Z,99406.90
2023-01-29T04:07:24.771Z,99407.23
2023-01-29T04:10:17.615Z,99398.28
2023-01-29T04:13:02.475Z,99389.22
2023-01-29T04:16:01.582Z,99384.13
2023-01-29T04:18:43.867Z,99382.63
2023-01-29T04:21:26.565Z,99380.38
2023-01-29T04:24:14.555Z,99380.48
2023-01-29T04:27:05.533Z,99376.78
2023-01-29T04:30:17.533Z,99373.58
2023-01-29T04:33:21.543Z,99364.65
2023-01-29T04:36:14.706Z,99355.21
2023-01-29T04:39:15.535Z,99342.74
2023-01-29T04:42:13.511Z,99335.91
2023-01-29T04:45:19.378Z,99334.91
2023-01-29T04:48:28.698Z,99334.52
2023-01-29T04:51:31.488Z,99326.23
2023-01-29T04:54:29.683Z,99328.55
2023-01-29T04:57:32.339Z,99324.57
2023-01-29T05:00:27.364Z,99321.14
2023-01-29T05:03:16.353Z,99323.52
2023-01-29T05:05:54.502Z,99324.69
2023-01-29T05:08:44.508Z,99322.45
2023-01-29T05:11:19.537Z,99326.60
2023-01-29T05:14:11.350Z,99333.48
2023-01-29T05:16:50.457Z,99341.08
2023-01-29T05:19:38.358Z,99344.75
2023-01-29T05:22:13.479Z,99342.91
2023-01-29T05:25:01.335Z,99340.47
2023-01-29T05:28:00.103Z,99342.90
2023-01-29T05:30:48.380Z,99342.54
2023-01-29T05:33:31.867Z,99345.64
2023-01-29T05:36:19.497Z,99345.55
2023-01-29T05:39:01.502Z,99345.48
2023-01-29T05:41:56.333Z,99349.39
2023-01-29T05:44:44.587Z,99353.73
2023-01-29T05:47:19.671Z,99365.23
2023-01-29T05:50:07.509Z,99364.14
2023-01-29T05:52:49.504Z,99360.00
2023-01-29T05:55:44.507Z,99364.50
2023-01-29T05:58:39.343Z,99369.81
2023-01-29T06:01:30.548Z,99369.27
2023-01-29T06:04:12.516Z,99366.24
2023-01-29T06:06:53.900Z,99368.07
2023-01-29T06:09:41.530Z,99371.92
2023-01-29T06:12:16.873Z,99371.31
2023-01-29T06:15:05.417Z,99370.48
2023-01-29T06:17:47.520Z,99370.70
2023-01-29T06:20:29.458Z,99377.59
2023-01-29T06:23:10.502Z,99380.16
2023-01-29T06:25:51.665Z,99384.38
2023-01-29T06:28:33.460Z,99380.61
2023-01-29T06:31:37.267Z,99386.78
2023-01-29T06:34:19.320Z,99391.86
2023-01-29T06:37:01.057Z,99392.81
2023-01-29T06:39:42.442Z,99398.23
2023-01-29T06:42:34.476Z,99408.58
2023-01-29T06:45:11.024Z,99409.39
2023-01-29T06:48:01.330Z,99410.17
2023-01-29T06:50:43.535Z,99409.84
2023-01-29T06:53:31.473Z,99408.67
2023-01-29T06:56:14.495Z,99409.56
2023-01-29T06:58:55.678Z,99405.67
2023-01-29T07:01:38.556Z,99403.52
2023-01-29T07:04:19.660Z,99397.27
2023-01-29T07:07:01.461Z,99396.98
2023-01-29T07:09:49.502Z,99399.48
2023-01-29T07:12:24.840Z,99399.89
2023-01-29T07:15:12.328Z,99403.00
2023-01-29T07:18:02.048Z,99402.83
2023-01-29T07:20:51.512Z,99405.77
2023-01-29T07:23:27.166Z,99406.94
2023-01-29T07:26:19.319Z,99405.05
2023-01-29T07:28:53.771Z,99407.56
2023-01-29T07:31:41.527Z,99411.85
2023-01-29T07:34:30.314Z,99414.48
2023-01-29T07:37:18.455Z,99419.48
2023-01-29T07:40:06.489Z,99423.44
2023-01-29T07:42:44.478Z,99427.77
2023-01-29T07:45:32.363Z,99428.04
2023-01-29T07:48:08.360Z,99423.52
2023-01-29T07:50:56.449Z,99431.35
2023-01-29T07:53:38.426Z,99431.70
2023-01-29T07:56:19.602Z,99435.17
2023-01-29T07:59:01.312Z,99434.48
2023-01-29T08:01:42.570Z,99435.83
2023-01-29T08:04:24.465Z,99437.36
2023-01-29T08:07:05.542Z,99438.19
2023-01-29T08:09:48.236Z,99436.41
2023-01-29T08:12:36.498Z,99436.23
2023-01-29T08:15:12.256Z,99440.36
2023-01-29T08:18:00.494Z,99443.83
2023-01-29T08:20:35.936Z,99449.72
2023-01-29T08:23:29.502Z,99458.70
2023-01-29T08:26:04.689Z,99464.67
2023-01-29T08:28:52.314Z,99470.94
2023-01-29T08:31:26.737Z,99475.34
2023-01-29T08:34:15.444Z,99475.61
2023-01-29T08:36:50.893Z,99473.60
2023-01-29T08:39:38.427Z,99467.01
2023-01-29T08:42:20.519Z,99462.24
2023-01-29T08:45:01.595Z,99450.40
2023-01-29T08:47:43.310Z,99442.33
2023-01-29T08:50:24.478Z,99443.13
2023-01-29T08:53:06.294Z,99443.45
2023-01-29T08:55:47.418Z,99444.50
2023-01-29T08:58:29.298Z,99443.54
2023-01-29T09:01:16.867Z,99442.20
2023-01-29T09:04:00.502Z,99439.64
2023-01-29T09:06:52.339Z,99434.48
2023-01-29T09:09:26.773Z,99431.26
2023-01-29T09:12:18.099Z,99430.02
2023-01-29T09:15:13.459Z,99435.09
2023-01-29T09:18:01.572Z,99434.89
2023-01-29T09:20:45.301Z,99444.73
2023-01-29T09:23:40.343Z,99448.09
2023-01-29T09:26:28.546Z,99440.30
2023-01-29T09:29:14.510Z,99434.52
2023-01-29T09:32:05.306Z,99431.10
2023-01-29T09:34:42.463Z,99427.05
2023-01-29T09:37:31.505Z,99420.54
2023-01-29T09:40:06.749Z,99418.95
2023-01-29T09:42:59.325Z,99412.01
2023-01-29T09:45:35.690Z,99416.06
2023-01-29T09:48:23.489Z,99414.05
2023-01-29T09:51:00.608Z,99408.63
2023-01-29T09:53:56.485Z,99405.65
2023-01-29T09:56:32.655Z,99398.27
2023-01-29T09:59:24.511Z,99392.98
2023-01-29T10:02:17.628Z,99392.57
2023-01-29T10:05:14.588Z,99387.61
2023-01-29T10:08:12.283Z,99388.19
2023-01-29T10:11:11.475Z,99391.44
2023-01-29T10:14:15.589Z,99390.02
2023-01-29T10:17:03.410Z,99383.62
2023-01-29T10:19:54.471Z,99381.88
2023-01-29T10:22:44.482Z,99379.27
2023-01-29T10:25:30.674Z,99370.86
2023-01-29T10:28:28.288Z,99365.11
2023-01-29T10:31:31.405Z,99359.09
2023-01-29T10:34:28.263Z,99354.30
2023-01-29T10:37:28.253Z,99354.22
2023-01-29T10:40:09.268Z,99339.83
2023-01-29T10:43:05.448Z,99332.48
2023-01-29T10:45:54.785Z,99319.64
2023-01-29T10:48:55.772Z,99309.05
2023-01-29T10:51:59.276Z,99301.43
2023-01-29T10:54:43.606Z,99293.26
2023-01-29T10:57:45.475Z,99289.17
2023-01-29T11:00:40.267Z,99276.85
2023-01-29T11:03:28.122Z,99269.77
2023-01-29T11:06:38.499Z,99274.02
2023-01-29T11:09:44.844Z,99267.64
2023-01-29T11:12:38.297Z,99258.91
2023-01-29T11:15:16.950Z,99258.15
2023-01-29T11:18:24.605Z,99248.63
2023-01-29T11:21:03.009Z,99253.77
2023-01-29T11:23:54.341Z,99246.36
2023-01-29T11:26:29.833Z,99236.83
2023-01-29T11:29:18.313Z,99228.43
2023-01-29T11:32:00.270Z,99229.02
2023-01-29T11:35:19.306Z,99231.97
2023-01-29T11:38:23.433Z,99228.88
2023-01-29T11:40:58.413Z,99223.91
2023-01-29T11:43:47.267Z,99219.11
2023-01-29T11:46:23.399Z,99217.57
2023-01-29T11:49:20.559Z,99206.92
2023-01-29T11:52:08.890Z,99202.74
2023-01-29T11:55:14.272Z,99195.76
2023-01-29T11:58:16.608Z,99196.39
2023-01-29T12:00:56.126Z,99198.92
2023-01-29T12:03:53.469Z,99198.41
2023-01-29T12:06:30.968Z,99190.46
2023-01-29T12:09:24.472Z,99187.25
2023-01-29T12:11:59.477Z,99180.02
2023-01-29T12:14:47.240Z,99178.33
2023-01-29T12:17:24.372Z,99175.30
2023-01-29T12:20:32.353Z,99177.94
2023-01-29T12:23:52.655Z,99184.16
2023-01-29T12:27:42.685Z,99178.69
2023-01-29T12:31:01.856Z,99181.86
2023-01-29T12:40:31.497Z,99191.38
2023-01-29T12:51:41.406Z,99189.36
2023-01-29T12:54:36.276Z,99180.73
2023-01-29T13:01:46.558Z,99173.58
2023-01-29T13:05:44.829Z,99161.91
2023-01-29T13:09:29.912Z,99160.09
2023-01-29T13:25:50.682Z,99138.67
2023-01-29T13:28:27.334Z,99145.65
2023-01-29T13:31:43.601Z,99145.26
2023-01-29T13:34:47.706Z,99147.48
2023-01-29T13:37:46.034Z,99153.31
2023-01-29T13:44:08.642Z,99144.77
2023-01-29T13:47:37.828Z,99144.90
2023-01-29T13:51:13.027Z,99132.48
2023-01-29T13:58:35.014Z,99133.43
2023-01-29T14:01:15.366Z,99135.50
2023-01-29T14:04:08.280Z,99142.36
2023-01-29T14:07:02.209Z,99141.52
2023-01-29T14:10:05.044Z,99133.40
2023-01-29T14:13:32.279Z,99135.04
2023-01-29T14:16:35.060Z,99129.98
2023-01-29T14:19:25.481Z,99124.49
2023-01-29T14:22:07.221Z,99119.13
2023-01-29T14:24:50.421Z,99109.98
2023-01-29T14:27:32.339Z,99109.95
2023-01-29T14:30:16.531Z,99112.36
2023-01-29T14:33:03.239Z,99116.56
2023-01-29T14:36:05.587Z,99116.68
2023-01-29T14:38:57.227Z,99116.63
2023-01-29T14:41:40.362Z,99117.84
2023-01-29T14:44:50.412Z,99109.73
2023-01-29T14:47:45.407Z,99109.87
2023-01-29T14:50:40.208Z,99105.13
2023-01-29T14:53:23.692Z,99106.13
2023-01-29T14:56:39.434Z,99104.80
2023-01-29T14:59:43.510Z,99108.16
2023-01-29T15:02:44.483Z,99107.38
2023-01-29T15:05:37.213Z,99099.96
2023-01-29T15:08:30.351Z,99091.86
2023-01-29T15:11:41.433Z,99087.38
2023-01-29T15:14:24.535Z,99090.52
2023-01-29T15:17:36.058Z,99086.67
2023-01-29T15:20:38.411Z,99083.58
2023-01-29T15:23:37.216Z,99077.68
2023-01-29T15:26:31.277Z,99080.27
2023-01-29T15:29:06.177Z,99072.32
2023-01-29T15:31:55.488Z,99068.04
2023-01-29T15:34:44.250Z,99067.42
2023-01-29T15:37:35.370Z,99066.74
2023-01-29T15:40:14.343Z,99069.21
2023-01-29T15:43:02.195Z,99075.48
2023-01-29T15:45:48.384Z,99078.45
2023-01-29T15:48:56.207Z,99077.52
2023-01-29T15:51:46.845Z,99080.05
2023-01-29T15:54:30.401Z,99075.15
2023-01-29T15:57:34.336Z,99070.61
2023-01-29T16:00:30.349Z,99068.73
2023-01-29T16:03:06.760Z,99064.17
2023-01-29T16:05:54.204Z,99066.14
2023-01-29T16:08:35.528Z,99060.11
2023-01-29T16:11:24.199Z,99064.70
2023-01-29T16:14:07.153Z,99066.52
2023-01-29T16:17:02.182Z,99062.09
2023-01-29T16:20:03.184Z,99070.05
2023-01-29T16:22:40.296Z,99078.11
2023-01-29T16:25:28.198Z,99075.21
2023-01-29T16:28:22.319Z,99078.35
2023-01-29T16:31:17.255Z,99082.98
2023-01-29T16:34:06.364Z,99081.88
2023-01-29T16:36:41.964Z,99079.27
2023-01-29T16:39:50.191Z,99075.96
2023-01-29T16:42:24.443Z,99073.29
2023-01-29T16:45:36.266Z,99070.58
2023-01-29T16:48:42.368Z,99071.36
2023-01-29T16:51:53.325Z,99057.44
2023-01-29T16:54:56.182Z,99055.45
2023-01-29T16:57:53.242Z,99053.42
2023-01-29T17:00:41.418Z,99049.63
2023-01-29T17:03:19.524Z,99048.46
2023-01-29T17:06:17.946Z,99047.02
2023-01-29T17:08:54.074Z,99053.79
2023-01-29T17:11:47.174Z,99056.84
2023-01-29T17:14:26.372Z,99049.93
2023-01-29T17:17:22.207Z,99043.95
2023-01-29T17:20:04.161Z,99039.15
2023-01-29T17:22:47.225Z,99037.05
2023-01-29T17:25:35.173Z,99031.30
2023-01-29T17:28:12.811Z,99033.31
2023-01-29T17:31:06.532Z,99029.34
2023-01-29T17:33:43.607Z,99026.13
2023-01-29T17:36:32.176Z,99026.80
2023-01-29T17:39:24.162Z,99025.38
2023-01-29T17:42:05.474Z,99021.01
2023-01-29T17:44:48.191Z,99023.91
2023-01-29T17:47:36.183Z,99022.60
2023-01-29T17:50:19.475Z,99023.48
2023-01-29T17:53:07.183Z,99022.45
2023-01-29T17:55:42.709Z,99017.45
2023-01-29T17:58:38.171Z,99015.86
2023-01-29T18:01:20.121Z,99012.14
2023-01-29T18:04:01.367Z,99009.48
2023-01-29T18:06:50.209Z,99000.51
2023-01-29T18:09:33.182Z,98996.87
2023-01-29T18:12:21.162Z,98994.65
2023-01-29T18:14:55.301Z,98991.21
2023-01-29T18:17:43.158Z,98992.30
2023-01-29T18:20:30.427Z,98990.52
2023-01-29T18:23:19.207Z,98986.09
2023-01-29T18:25:57.774Z,98982.86
2023-01-29T18:28:47.172Z,98982.71
2023-01-29T18:31:29.550Z,98987.20
2023-01-29T18:34:17.165Z,98983.91
2023-01-29T18:37:13.248Z,98982.48
2023-01-29T18:40:01.164Z,98985.39
2023-01-29T18:42:38.882Z,98979.34
2023-01-29T18:45:27.152Z,98977.33
2023-01-29T18:48:02.433Z,98980.27
2023-01-29T18:50:50.633Z,98984.25
2023-01-29T18:53:26.795Z,98982.82
2023-01-29T18:56:18.307Z,98982.86
2023-01-29T18:59:00.552Z,98981.10
2023-01-29T19:01:55.231Z,98978.82
2023-01-29T19:04:44.153Z,98978.16
2023-01-29T19:07:20.529Z,98968.14
2023-01-29T19:10:12.151Z,98964.56
2023-01-29T19:12:47.907Z,98960.45
2023-01-29T19:15:36.167Z,98960.41
2023-01-29T19:18:14.887Z,98957.85
2023-01-29T19:23:55.717Z,98950.23
2023-01-29T19:26:43.830Z,98945.59
2023-01-29T19:29:20.307Z,98946.30
2023-01-29T19:32:08.171Z,98941.02
2023-01-29T19:34:53.444Z,98937.29
2023-01-29T19:37:43.137Z,98932.96
2023-01-29T19:40:26.171Z,98930.58
2023-01-29T19:43:25.140Z,98935.56
2023-01-29T19:46:14.187Z,98934.11
2023-01-29T19:48:56.175Z,98929.59
2023-01-29T19:51:51.674Z,98928.23
2023-01-29T19:54:42.169Z,98934.92
2023-01-29T19:57:24.155Z,98928.77
2023-01-29T20:00:24.187Z,98928.42
2023-01-29T20:03:13.359Z,98923.75
2023-01-29T20:05:53.746Z,98922.04
2023-01-29T20:08:44.165Z,98924.63
2023-01-29T20:11:31.754Z,98924.15
2023-01-29T20:14:27.151Z,98925.76
2023-01-29T20:17:18.059Z,98930.13
2023-01-29T20:19:53.302Z,98931.66
2023-01-29T20:22:51.608Z,98928.04
2023-01-29T20:25:26.470Z,98921.78
2023-01-29T20:28:20.137Z,98917.33
2023-01-29T20:31:08.416Z,98912.77
2023-01-29T20:33:56.144Z,98910.98
2023-01-29T20:36:32.255Z,98903.77
2023-01-29T20:39:20.615Z,98911.36
2023-01-29T20:41:57.490Z,98906.24
2023-01-29T20:44:45.340Z,98897.24
2023-01-29T20:47:30.051Z,98897.91
2023-01-29T20:50:29.222Z,98897.69
2023-01-29T20:53:18.130Z,98899.42
2023-01-29T20:56:02.631Z,98892.40
2023-01-29T20:58:53.318Z,98888.82
2023-01-29T21:01:44.275Z,98890.81
2023-01-29T21:04:19.313Z,98887.67
2023-01-29T21:07:08.145Z,98890.54
2023-01-29T21:09:43.817Z,98888.02
2023-01-29T21:12:34.376Z,98883.33
2023-01-29T21:15:10.081Z,98885.30
2023-01-29T21:17:59.131Z,98883.99
2023-01-29T21:20:40.115Z,98881.19
2023-01-29T21:23:22.279Z,98882.60
2023-01-29T21:26:12.339Z,98885.83
2023-01-29T21:29:04.287Z,98876.75
2023-01-29T21:31:38.600Z,98874.10
2023-01-29T21:34:26.131Z,98866.61
2023-01-29T21:37:00.996Z,98861.54
2023-01-29T21:39:49.139Z,98856.95
2023-01-29T21:42:49.354Z,98854.88
2023-01-29T21:45:41.507Z,98852.24
2023-01-29T21:48:24.340Z,98847.75
2023-01-29T21:51:09.249Z,98842.50
2023-01-29T21:53:53.106Z,98843.64
2023-01-29T21:56:34.410Z,98837.97
2023-01-29T21:59:21.031Z,98831.11
2023-01-29T22:02:04.005Z,98828.29
2023-01-29T22:04:46.169Z,98825.92
2023-01-29T22:07:35.105Z,98819.42
2023-01-29T22:10:12.686Z,98817.66
2023-01-29T22:13:02.395Z,98812.06
2023-01-29T22:15:45.172Z,98805.48
2023-01-29T22:18:26.308Z,98804.81
2023-01-29T22:21:09.118Z,98804.31
2023-01-29T22:23:50.355Z,98801.94
2023-01-29T22:26:32.404Z,98801.38
2023-01-29T22:29:17.870Z,98799.33
2023-01-29T22:32:00.167Z,98799.28
2023-01-29T22:34:48.123Z,98793.52
2023-01-29T22:37:22.874Z,98791.57
2023-01-29T22:40:15.538Z,98783.66
2023-01-29T22:42:57.104Z,98776.74
2023-01-29T22:45:46.102Z,98772.27
2023-01-29T22:48:27.189Z,98770.05
2023-01-29T22:51:12.193Z,98767.54
2023-01-29T22:53:59.111Z,98761.70
2023-01-29T22:56:41.186Z,98757.61
2023-01-29T22:59:23.252Z,98750.34
2023-01-29T23:02:05.296Z,98748.03
2023-01-29T23:04:46.124Z,98749.51
2023-01-29T23:07:27.438Z,98747.46
2023-01-29T23:10:09.098Z,98740.63
2023-01-29T23:12:57.116Z,98737.81
2023-01-29T23:15:38.438Z,98738.04
2023-01-29T23:18:27.291Z,98729.25
2023-01-29T23:21:22.101Z,98724.85
2023-01-29T23:24:11.112Z,98718.23
2023-01-29T23:27:05.316Z,98712.40
2023-01-29T23:29:55.096Z,98713.42
2023-01-29T23:32:30.232Z,98709.39
2023-01-29T23:35:18.117Z,98710.97
2023-01-29T23:38:13.208Z,98711.58
2023-01-29T23:41:05.232Z,98710.61
2023-01-29T23:43:47.088Z,98702.89
2023-01-29T23:46:42.146Z,98695.80
2023-01-29T23:49:30.096Z,98686.61
2023-01-29T23:52:05.278Z,98678.45
2023-01-29T23:54:53.277Z,98670.58
2023-01-29T23:57:35.290Z,98663.27
